sensor_id;sensor_type;location;lat;lon;timestamp;temperature;humidity
20432;DHT22;10375;49.136;10.366;2023-09-18T00:00:51;17.00;99.90
20432;DHT22;10375;49.136;10.366;2023-09-18T00:03:19;17.10;99.90
20432;DHT22;10375;49.136;10.366;2023-09-18T00:05:47;17.00;99.90
20432;DHT22;10375;49.136;10.366;2023-09-18T00:08:15;17.10;99.90
20432;DHT22;10375;49.136;10.366;2023-09-18T00:10:47;17.10;99.90
20432;DHT22;10375;49.136;10.366;2023-09-18T00:13:14;17.10;99.90
20432;DHT22;10375;49.136;10.366;2023-09-18T00:15:42;17.00;99.90
20432;DHT22;10375;49.136;10.366;2023-09-18T00:18:15;17.00;99.90
20432;DHT22;10375;49.136;10.366;2023-09-18T00:20:43;17.00;99.90
20432;DHT22;10375;49.136;10.366;2023-09-18T00:23:10;17.00;99.90
20432;DHT22;10375;49.136;10.366;2023-09-18T00:25:37;17.00;99.90
20432;DHT22;10375;49.136;10.366;2023-09-18T00:28:05;17.00;99.90
20432;DHT22;10375;49.136;10.366;2023-09-18T00:30:32;17.00;99.90
20432;DHT22;10375;49.136;10.366;2023-09-18T00:32:59;16.90;99.90
20432;DHT22;10375;49.136;10.366;2023-09-18T00:35:26;17.00;99.90
20432;DHT22;10375;49.136;10.366;2023-09-18T00:37:53;17.00;99.90
20432;DHT22;10375;49.136;10.366;2023-09-18T00:40:20;17.00;99.90
20432;DHT22;10375;49.136;10.366;2023-09-18T00:42:47;17.00;99.90
20432;DHT22;10375;49.136;10.366;2023-09-18T00:45:14;16.90;99.90
20432;DHT22;10375;49.136;10.366;2023-09-18T00:47:41;16.90;99.90
20432;DHT22;10375;49.136;10.366;2023-09-18T00:50:10;16.90;99.90
20432;DHT22;10375;49.136;10.366;2023-09-18T00:52:38;16.90;99.90
20432;DHT22;10375;49.136;10.366;2023-09-18T00:55:07;16.80;99.90
20432;DHT22;10375;49.136;10.366;2023-09-18T00:57:35;16.80;99.90
20432;DHT22;10375;49.136;10.366;2023-09-18T01:00:03;16.90;99.90
20432;DHT22;10375;49.136;10.366;2023-09-18T01:02:33;16.80;99.90
20432;DHT22;10375;49.136;10.366;2023-09-18T01:05:01;16.80;99.90
20432;DHT22;10375;49.136;10.366;2023-09-18T01:07:28;16.70;99.90
20432;DHT22;10375;49.136;10.366;2023-09-18T01:09:56;16.70;99.90
20432;DHT22;10375;49.136;10.366;2023-09-18T01:12:27;16.70;99.90
20432;DHT22;10375;49.136;10.366;2023-09-18T01:15:06;16.70;99.90
20432;DHT22;10375;49.136;10.366;2023-09-18T01:17:35;16.70;99.90
20432;DHT22;10375;49.136;10.366;2023-09-18T01:20:11;16.70;99.90
20432;DHT22;10375;49.136;10.366;2023-09-18T01:22:39;16.70;99.90
20432;DHT22;10375;49.136;10.366;2023-09-18T01:25:06;16.70;99.90
20432;DHT22;10375;49.136;10.366;2023-09-18T01:27:34;16.70;99.90
20432;DHT22;10375;49.136;10.366;2023-09-18T01:30:01;16.70;99.90
20432;DHT22;10375;49.136;10.366;2023-09-18T01:32:31;16.80;99.90
20432;DHT22;10375;49.136;10.366;2023-09-18T01:35:00;16.80;99.90
20432;DHT22;10375;49.136;10.366;2023-09-18T01:37:30;16.80;99.90
20432;DHT22;10375;49.136;10.366;2023-09-18T01:39:58;16.90;99.90
20432;DHT22;10375;49.136;10.366;2023-09-18T01:42:27;16.80;99.90
20432;DHT22;10375;49.136;10.366;2023-09-18T01:44:55;16.90;99.90
20432;DHT22;10375;49.136;10.366;2023-09-18T01:47:22;17.00;99.90
20432;DHT22;10375;49.136;10.366;2023-09-18T01:49:55;16.90;99.90
20432;DHT22;10375;49.136;10.366;2023-09-18T01:52:22;16.90;99.90
20432;DHT22;10375;49.136;10.366;2023-09-18T01:54:50;16.90;99.90
20432;DHT22;10375;49.136;10.366;2023-09-18T01:57:17;16.80;99.90
20432;DHT22;10375;49.136;10.366;2023-09-18T01:59:44;16.90;99.90
20432;DHT22;10375;49.136;10.366;2023-09-18T02:02:13;16.90;99.90
20432;DHT22;10375;49.136;10.366;2023-09-18T02:05:00;17.00;99.90
20432;DHT22;10375;49.136;10.366;2023-09-18T02:07:35;17.00;99.90
20432;DHT22;10375;49.136;10.366;2023-09-18T02:10:03;17.00;99.90
20432;DHT22;10375;49.136;10.366;2023-09-18T02:12:31;17.00;99.90
20432;DHT22;10375;49.136;10.366;2023-09-18T02:14:58;17.00;99.90
20432;DHT22;10375;49.136;10.366;2023-09-18T02:17:30;17.00;99.90
20432;DHT22;10375;49.136;10.366;2023-09-18T02:19:58;17.00;99.90
20432;DHT22;10375;49.136;10.366;2023-09-18T02:22:27;17.00;99.90
20432;DHT22;10375;49.136;10.366;2023-09-18T02:24:55;17.00;99.90
20432;DHT22;10375;49.136;10.366;2023-09-18T02:27:22;17.00;99.90
20432;DHT22;10375;49.136;10.366;2023-09-18T02:29:49;17.00;99.90
20432;DHT22;10375;49.136;10.366;2023-09-18T02:32:17;17.00;99.90
20432;DHT22;10375;49.136;10.366;2023-09-18T02:34:44;16.90;99.90
20432;DHT22;10375;49.136;10.366;2023-09-18T02:37:11;17.00;99.90
20432;DHT22;10375;49.136;10.366;2023-09-18T02:39:38;17.10;99.90
20432;DHT22;10375;49.136;10.366;2023-09-18T02:42:06;17.20;99.90
20432;DHT22;10375;49.136;10.366;2023-09-18T02:44:33;17.20;99.90
20432;DHT22;10375;49.136;10.366;2023-09-18T02:47:00;17.30;99.90
20432;DHT22;10375;49.136;10.366;2023-09-18T02:49:28;17.30;99.90
20432;DHT22;10375;49.136;10.366;2023-09-18T02:51:56;17.30;99.90
20432;DHT22;10375;49.136;10.366;2023-09-18T02:54:23;17.30;99.90
20432;DHT22;10375;49.136;10.366;2023-09-18T02:56:50;17.30;99.90
20432;DHT22;10375;49.136;10.366;2023-09-18T02:59:17;17.30;99.90
20432;DHT22;10375;49.136;10.366;2023-09-18T03:01:45;17.20;99.90
20432;DHT22;10375;49.136;10.366;2023-09-18T03:04:12;17.20;99.90
20432;DHT22;10375;49.136;10.366;2023-09-18T03:06:39;17.20;99.90
20432;DHT22;10375;49.136;10.366;2023-09-18T03:09:07;17.20;99.90
20432;DHT22;10375;49.136;10.366;2023-09-18T03:11:34;17.30;99.90
20432;DHT22;10375;49.136;10.366;2023-09-18T03:14:01;17.30;99.90
20432;DHT22;10375;49.136;10.366;2023-09-18T03:16:28;17.30;99.90
20432;DHT22;10375;49.136;10.366;2023-09-18T03:18:56;17.40;99.90
20432;DHT22;10375;49.136;10.366;2023-09-18T03:21:23;17.50;99.90
20432;DHT22;10375;49.136;10.366;2023-09-18T03:23:50;17.50;99.90
20432;DHT22;10375;49.136;10.366;2023-09-18T03:26:18;17.60;99.90
20432;DHT22;10375;49.136;10.366;2023-09-18T03:28:45;17.60;99.90
20432;DHT22;10375;49.136;10.366;2023-09-18T03:31:12;17.60;99.90
20432;DHT22;10375;49.136;10.366;2023-09-18T03:33:39;17.50;99.90
20432;DHT22;10375;49.136;10.366;2023-09-18T03:36:06;17.60;99.90
20432;DHT22;10375;49.136;10.366;2023-09-18T03:38:36;17.60;99.90
20432;DHT22;10375;49.136;10.366;2023-09-18T03:41:03;17.60;99.90
20432;DHT22;10375;49.136;10.366;2023-09-18T03:43:31;17.70;99.90
20432;DHT22;10375;49.136;10.366;2023-09-18T03:46:05;17.70;99.90
20432;DHT22;10375;49.136;10.366;2023-09-18T03:48:33;17.70;99.90
20432;DHT22;10375;49.136;10.366;2023-09-18T03:51:05;17.70;99.90
20432;DHT22;10375;49.136;10.366;2023-09-18T03:53:35;17.70;99.90
20432;DHT22;10375;49.136;10.366;2023-09-18T03:56:02;17.70;99.90
20432;DHT22;10375;49.136;10.366;2023-09-18T03:58:29;17.80;99.90
20432;DHT22;10375;49.136;10.366;2023-09-18T04:00:56;17.70;99.90
20432;DHT22;10375;49.136;10.366;2023-09-18T04:03:24;17.70;99.90
20432;DHT22;10375;49.136;10.366;2023-09-18T04:05:51;17.70;99.90
20432;DHT22;10375;49.136;10.366;2023-09-18T04:08:18;17.70;99.90
20432;DHT22;10375;49.136;10.366;2023-09-18T04:10:45;17.60;99.90
20432;DHT22;10375;49.136;10.366;2023-09-18T04:13:12;17.60;99.90
20432;DHT22;10375;49.136;10.366;2023-09-18T04:15:40;17.50;99.90
20432;DHT22;10375;49.136;10.366;2023-09-18T04:18:07;17.50;99.90
20432;DHT22;10375;49.136;10.366;2023-09-18T04:20:34;17.40;99.90
20432;DHT22;10375;49.136;10.366;2023-09-18T04:23:22;17.30;99.90
20432;DHT22;10375;49.136;10.366;2023-09-18T04:25:51;17.30;99.90
20432;DHT22;10375;49.136;10.366;2023-09-18T04:28:20;17.20;99.90
20432;DHT22;10375;49.136;10.366;2023-09-18T04:30:47;17.10;99.90
20432;DHT22;10375;49.136;10.366;2023-09-18T04:33:15;17.10;99.90
20432;DHT22;10375;49.136;10.366;2023-09-18T04:35:43;17.10;99.90
20432;DHT22;10375;49.136;10.366;2023-09-18T04:38:11;17.00;99.90
20432;DHT22;10375;49.136;10.366;2023-09-18T04:40:39;17.00;99.90
20432;DHT22;10375;49.136;10.366;2023-09-18T04:43:08;17.00;99.90
20432;DHT22;10375;49.136;10.366;2023-09-18T04:45:35;17.00;99.90
20432;DHT22;10375;49.136;10.366;2023-09-18T04:48:03;17.10;99.90
20432;DHT22;10375;49.136;10.366;2023-09-18T04:50:33;17.10;99.90
20432;DHT22;10375;49.136;10.366;2023-09-18T04:53:01;17.10;99.90
20432;DHT22;10375;49.136;10.366;2023-09-18T04:55:28;17.20;99.90
20432;DHT22;10375;49.136;10.366;2023-09-18T04:57:55;17.30;99.90
20432;DHT22;10375;49.136;10.366;2023-09-18T05:00:25;17.30;99.90
20432;DHT22;10375;49.136;10.366;2023-09-18T05:02:53;17.30;99.90
20432;DHT22;10375;49.136;10.366;2023-09-18T05:05:20;17.30;99.90
20432;DHT22;10375;49.136;10.366;2023-09-18T05:07:48;17.30;99.90
20432;DHT22;10375;49.136;10.366;2023-09-18T05:10:15;17.30;99.90
20432;DHT22;10375;49.136;10.366;2023-09-18T05:12:42;17.20;99.90
20432;DHT22;10375;49.136;10.366;2023-09-18T05:15:09;17.10;99.90
20432;DHT22;10375;49.136;10.366;2023-09-18T05:17:44;17.10;99.90
20432;DHT22;10375;49.136;10.366;2023-09-18T05:20:16;17.20;99.90
20432;DHT22;10375;49.136;10.366;2023-09-18T05:22:44;17.20;99.90
20432;DHT22;10375;49.136;10.366;2023-09-18T05:25:13;17.30;99.90
20432;DHT22;10375;49.136;10.366;2023-09-18T05:27:42;17.30;99.90
20432;DHT22;10375;49.136;10.366;2023-09-18T05:30:19;17.40;99.90
20432;DHT22;10375;49.136;10.366;2023-09-18T05:32:50;17.50;99.90
20432;DHT22;10375;49.136;10.366;2023-09-18T05:35:17;17.60;99.90
20432;DHT22;10375;49.136;10.366;2023-09-18T05:37:44;17.60;99.90
20432;DHT22;10375;49.136;10.366;2023-09-18T05:40:13;17.70;99.90
20432;DHT22;10375;49.136;10.366;2023-09-18T05:42:42;17.90;99.90
20432;DHT22;10375;49.136;10.366;2023-09-18T05:45:13;17.90;99.90
20432;DHT22;10375;49.136;10.366;2023-09-18T05:47:41;18.00;99.90
20432;DHT22;10375;49.136;10.366;2023-09-18T05:50:11;18.10;99.90
20432;DHT22;10375;49.136;10.366;2023-09-18T05:52:44;18.10;99.90
20432;DHT22;10375;49.136;10.366;2023-09-18T05:55:12;18.10;99.90
20432;DHT22;10375;49.136;10.366;2023-09-18T05:57:39;18.10;99.90
20432;DHT22;10375;49.136;10.366;2023-09-18T06:00:07;18.10;99.90
20432;DHT22;10375;49.136;10.366;2023-09-18T06:02:35;18.20;99.90
20432;DHT22;10375;49.136;10.366;2023-09-18T06:05:04;18.20;99.90
20432;DHT22;10375;49.136;10.366;2023-09-18T06:07:32;18.40;99.90
20432;DHT22;10375;49.136;10.366;2023-09-18T06:09:59;18.60;99.90
20432;DHT22;10375;49.136;10.366;2023-09-18T06:12:27;18.80;99.90
20432;DHT22;10375;49.136;10.366;2023-09-18T06:14:54;19.40;99.90
20432;DHT22;10375;49.136;10.366;2023-09-18T06:17:21;20.80;99.90
20432;DHT22;10375;49.136;10.366;2023-09-18T06:19:48;22.20;99.90
20432;DHT22;10375;49.136;10.366;2023-09-18T06:22:16;22.70;99.90
20432;DHT22;10375;49.136;10.366;2023-09-18T06:24:44;22.70;99.90
20432;DHT22;10375;49.136;10.366;2023-09-18T06:27:11;22.30;99.90
20432;DHT22;10375;49.136;10.366;2023-09-18T06:29:38;22.00;99.90
20432;DHT22;10375;49.136;10.366;2023-09-18T06:32:06;22.30;99.90
20432;DHT22;10375;49.136;10.366;2023-09-18T06:34:34;22.90;99.90
20432;DHT22;10375;49.136;10.366;2023-09-18T06:37:01;23.10;99.90
20432;DHT22;10375;49.136;10.366;2023-09-18T06:39:30;23.20;99.90
20432;DHT22;10375;49.136;10.366;2023-09-18T06:41:57;24.30;99.90
20432;DHT22;10375;49.136;10.366;2023-09-18T06:44:24;24.90;99.90
20432;DHT22;10375;49.136;10.366;2023-09-18T06:46:51;24.00;99.90
20432;DHT22;10375;49.136;10.366;2023-09-18T06:49:20;23.30;99.90
20432;DHT22;10375;49.136;10.366;2023-09-18T06:51:47;22.80;99.90
20432;DHT22;10375;49.136;10.366;2023-09-18T06:54:14;22.30;99.90
20432;DHT22;10375;49.136;10.366;2023-09-18T06:56:42;22.00;99.90
20432;DHT22;10375;49.136;10.366;2023-09-18T06:59:11;21.80;99.90
20432;DHT22;10375;49.136;10.366;2023-09-18T07:01:41;22.10;99.90
20432;DHT22;10375;49.136;10.366;2023-09-18T07:04:09;22.70;99.90
20432;DHT22;10375;49.136;10.366;2023-09-18T07:06:37;24.60;99.90
20432;DHT22;10375;49.136;10.366;2023-09-18T07:09:04;27.00;99.90
20432;DHT22;10375;49.136;10.366;2023-09-18T07:11:34;28.10;99.90
20432;DHT22;10375;49.136;10.366;2023-09-18T07:14:01;28.40;99.90
20432;DHT22;10375;49.136;10.366;2023-09-18T07:16:33;29.10;99.90
20432;DHT22;10375;49.136;10.366;2023-09-18T07:19:01;30.10;99.90
20432;DHT22;10375;49.136;10.366;2023-09-18T07:21:31;30.80;99.90
20432;DHT22;10375;49.136;10.366;2023-09-18T07:23:59;31.60;98.70
20432;DHT22;10375;49.136;10.366;2023-09-18T07:26:26;31.20;95.70
20432;DHT22;10375;49.136;10.366;2023-09-18T07:28:53;30.40;97.40
20432;DHT22;10375;49.136;10.366;2023-09-18T07:31:21;29.30;98.60
20432;DHT22;10375;49.136;10.366;2023-09-18T07:33:48;28.90;98.80
20432;DHT22;10375;49.136;10.366;2023-09-18T07:36:15;27.90;99.90
20432;DHT22;10375;49.136;10.366;2023-09-18T07:38:42;26.90;99.90
20432;DHT22;10375;49.136;10.366;2023-09-18T07:41:10;26.50;99.90
20432;DHT22;10375;49.136;10.366;2023-09-18T07:43:37;26.30;99.90
20432;DHT22;10375;49.136;10.366;2023-09-18T07:46:06;27.10;99.90
20432;DHT22;10375;49.136;10.366;2023-09-18T07:48:33;27.70;99.90
20432;DHT22;10375;49.136;10.366;2023-09-18T07:51:02;27.80;99.90
20432;DHT22;10375;49.136;10.366;2023-09-18T07:53:29;27.70;99.70
20432;DHT22;10375;49.136;10.366;2023-09-18T07:55:57;27.10;99.90
20432;DHT22;10375;49.136;10.366;2023-09-18T07:58:26;26.70;99.90
20432;DHT22;10375;49.136;10.366;2023-09-18T08:00:57;26.20;99.90
20432;DHT22;10375;49.136;10.366;2023-09-18T08:03:26;25.80;99.90
20432;DHT22;10375;49.136;10.366;2023-09-18T08:05:53;25.60;99.90
20432;DHT22;10375;49.136;10.366;2023-09-18T08:08:21;25.60;99.90
20432;DHT22;10375;49.136;10.366;2023-09-18T08:10:50;25.80;99.90
20432;DHT22;10375;49.136;10.366;2023-09-18T08:13:17;26.20;99.90
20432;DHT22;10375;49.136;10.366;2023-09-18T08:15:44;26.60;99.90
20432;DHT22;10375;49.136;10.366;2023-09-18T08:18:12;27.20;99.90
20432;DHT22;10375;49.136;10.366;2023-09-18T08:20:43;27.60;97.60
20432;DHT22;10375;49.136;10.366;2023-09-18T08:23:11;27.90;97.80
20432;DHT22;10375;49.136;10.366;2023-09-18T08:25:38;28.00;97.10
20432;DHT22;10375;49.136;10.366;2023-09-18T08:28:07;28.00;97.40
20432;DHT22;10375;49.136;10.366;2023-09-18T08:30:36;27.60;96.50
20432;DHT22;10375;49.136;10.366;2023-09-18T08:33:04;27.20;97.00
20432;DHT22;10375;49.136;10.366;2023-09-18T08:35:32;26.80;97.60
20432;DHT22;10375;49.136;10.366;2023-09-18T08:38:00;26.30;97.10
20432;DHT22;10375;49.136;10.366;2023-09-18T08:40:27;26.20;97.50
20432;DHT22;10375;49.136;10.366;2023-09-18T08:42:55;26.10;97.70
20432;DHT22;10375;49.136;10.366;2023-09-18T08:45:35;26.30;98.00
20432;DHT22;10375;49.136;10.366;2023-09-18T08:48:06;26.70;98.00
20432;DHT22;10375;49.136;10.366;2023-09-18T08:50:34;27.00;96.80
20432;DHT22;10375;49.136;10.366;2023-09-18T08:53:01;27.20;96.30
20432;DHT22;10375;49.136;10.366;2023-09-18T08:55:33;27.10;95.10
20432;DHT22;10375;49.136;10.366;2023-09-18T08:58:00;26.90;95.00
20432;DHT22;10375;49.136;10.366;2023-09-18T09:00:27;26.50;95.80
20432;DHT22;10375;49.136;10.366;2023-09-18T09:02:55;26.30;96.60
20432;DHT22;10375;49.136;10.366;2023-09-18T09:05:24;26.10;96.50
20432;DHT22;10375;49.136;10.366;2023-09-18T09:07:52;26.00;96.50
20432;DHT22;10375;49.136;10.366;2023-09-18T09:10:19;26.00;96.90
20432;DHT22;10375;49.136;10.366;2023-09-18T09:12:56;25.90;97.40
20432;DHT22;10375;49.136;10.366;2023-09-18T09:15:27;25.60;97.10
20432;DHT22;10375;49.136;10.366;2023-09-18T09:18:06;25.20;97.20
20432;DHT22;10375;49.136;10.366;2023-09-18T09:20:35;25.00;97.90
20432;DHT22;10375;49.136;10.366;2023-09-18T09:23:04;25.00;98.20
20432;DHT22;10375;49.136;10.366;2023-09-18T09:25:32;24.80;98.20
20432;DHT22;10375;49.136;10.366;2023-09-18T09:28:02;24.80;98.70
20432;DHT22;10375;49.136;10.366;2023-09-18T09:30:33;24.70;98.90
20432;DHT22;10375;49.136;10.366;2023-09-18T09:33:03;24.70;99.50
20432;DHT22;10375;49.136;10.366;2023-09-18T09:35:33;24.80;99.50
20432;DHT22;10375;49.136;10.366;2023-09-18T09:40:29;24.90;99.80
20432;DHT22;10375;49.136;10.366;2023-09-18T09:42:58;25.10;98.40
20432;DHT22;10375;49.136;10.366;2023-09-18T09:45:30;25.00;98.20
20432;DHT22;10375;49.136;10.366;2023-09-18T09:48:00;24.80;98.20
20432;DHT22;10375;49.136;10.366;2023-09-18T09:50:27;24.90;98.80
20432;DHT22;10375;49.136;10.366;2023-09-18T09:52:55;24.90;98.80
20432;DHT22;10375;49.136;10.366;2023-09-18T09:55:30;24.80;98.90
20432;DHT22;10375;49.136;10.366;2023-09-18T09:58:03;24.80;98.90
20432;DHT22;10375;49.136;10.366;2023-09-18T10:00:46;24.60;98.60
20432;DHT22;10375;49.136;10.366;2023-09-18T10:03:19;24.40;99.10
20432;DHT22;10375;49.136;10.366;2023-09-18T10:05:49;24.10;99.30
20432;DHT22;10375;49.136;10.366;2023-09-18T10:08:22;24.00;99.90
20432;DHT22;10375;49.136;10.366;2023-09-18T10:10:51;23.90;99.90
20432;DHT22;10375;49.136;10.366;2023-09-18T10:16:18;23.60;99.90
20432;DHT22;10375;49.136;10.366;2023-09-18T10:22:31;23.60;99.90
20432;DHT22;10375;49.136;10.366;2023-09-18T10:25:24;23.60;99.90
20432;DHT22;10375;49.136;10.366;2023-09-18T10:27:54;23.40;99.90
20432;DHT22;10375;49.136;10.366;2023-09-18T10:30:32;23.40;99.90
20432;DHT22;10375;49.136;10.366;2023-09-18T10:33:01;23.20;99.90
20432;DHT22;10375;49.136;10.366;2023-09-18T10:35:29;23.10;99.90
20432;DHT22;10375;49.136;10.366;2023-09-18T10:37:57;23.00;99.90
20432;DHT22;10375;49.136;10.366;2023-09-18T10:40:25;22.90;99.90
20432;DHT22;10375;49.136;10.366;2023-09-18T10:42:57;22.80;99.90
20432;DHT22;10375;49.136;10.366;2023-09-18T10:45:25;22.80;99.90
20432;DHT22;10375;49.136;10.366;2023-09-18T10:47:54;22.80;99.90
20432;DHT22;10375;49.136;10.366;2023-09-18T10:50:26;22.80;99.90
20432;DHT22;10375;49.136;10.366;2023-09-18T10:52:53;22.70;99.90
20432;DHT22;10375;49.136;10.366;2023-09-18T10:55:21;22.70;99.90
20432;DHT22;10375;49.136;10.366;2023-09-18T10:57:57;22.60;99.90
20432;DHT22;10375;49.136;10.366;2023-09-18T11:00:26;22.40;99.90
20432;DHT22;10375;49.136;10.366;2023-09-18T11:03:15;22.30;99.90
20432;DHT22;10375;49.136;10.366;2023-09-18T11:05:46;22.10;99.90
20432;DHT22;10375;49.136;10.366;2023-09-18T11:08:35;21.90;99.90
20432;DHT22;10375;49.136;10.366;2023-09-18T11:11:06;21.80;99.90
20432;DHT22;10375;49.136;10.366;2023-09-18T11:13:39;21.70;99.90
20432;DHT22;10375;49.136;10.366;2023-09-18T11:19:08;21.30;99.90
20432;DHT22;10375;49.136;10.366;2023-09-18T11:21:36;21.20;99.90
20432;DHT22;10375;49.136;10.366;2023-09-18T11:24:07;21.00;99.90
20432;DHT22;10375;49.136;10.366;2023-09-18T11:26:42;20.70;99.90
20432;DHT22;10375;49.136;10.366;2023-09-18T11:29:12;20.60;99.90
20432;DHT22;10375;49.136;10.366;2023-09-18T11:31:54;20.50;99.90
20432;DHT22;10375;49.136;10.366;2023-09-18T11:34:24;20.40;99.90
20432;DHT22;10375;49.136;10.366;2023-09-18T11:36:53;20.30;99.90
20432;DHT22;10375;49.136;10.366;2023-09-18T11:39:37;20.20;99.90
20432;DHT22;10375;49.136;10.366;2023-09-18T11:44:35;19.80;99.90
20432;DHT22;10375;49.136;10.366;2023-09-18T11:47:09;19.80;99.90
20432;DHT22;10375;49.136;10.366;2023-09-18T11:49:51;19.60;99.90
20432;DHT22;10375;49.136;10.366;2023-09-18T11:52:28;19.60;99.90
20432;DHT22;10375;49.136;10.366;2023-09-18T11:54:57;19.50;99.90
20432;DHT22;10375;49.136;10.366;2023-09-18T11:57:25;19.40;99.90
20432;DHT22;10375;49.136;10.366;2023-09-18T11:59:53;19.20;99.90
20432;DHT22;10375;49.136;10.366;2023-09-18T12:02:27;19.20;99.90
20432;DHT22;10375;49.136;10.366;2023-09-18T12:04:56;19.10;99.90
20432;DHT22;10375;49.136;10.366;2023-09-18T12:07:24;19.10;99.90
20432;DHT22;10375;49.136;10.366;2023-09-18T12:09:51;19.20;99.90
20432;DHT22;10375;49.136;10.366;2023-09-18T12:12:21;19.10;99.90
20432;DHT22;10375;49.136;10.366;2023-09-18T12:14:48;19.00;99.90
20432;DHT22;10375;49.136;10.366;2023-09-18T12:17:16;18.80;99.90
20432;DHT22;10375;49.136;10.366;2023-09-18T12:19:56;18.80;99.90
20432;DHT22;10375;49.136;10.366;2023-09-18T12:22:27;18.80;99.90
20432;DHT22;10375;49.136;10.366;2023-09-18T12:25:12;18.80;99.90
20432;DHT22;10375;49.136;10.366;2023-09-18T12:27:42;18.90;99.90
20432;DHT22;10375;49.136;10.366;2023-09-18T12:30:11;18.80;99.90
20432;DHT22;10375;49.136;10.366;2023-09-18T12:32:39;18.80;99.90
20432;DHT22;10375;49.136;10.366;2023-09-18T12:35:07;18.80;99.90
20432;DHT22;10375;49.136;10.366;2023-09-18T12:37:40;18.70;99.90
20432;DHT22;10375;49.136;10.366;2023-09-18T12:40:31;18.70;99.90
20432;DHT22;10375;49.136;10.366;2023-09-18T12:43:02;18.70;99.90
20432;DHT22;10375;49.136;10.366;2023-09-18T12:45:30;18.60;99.90
20432;DHT22;10375;49.136;10.366;2023-09-18T12:47:58;18.50;99.90
20432;DHT22;10375;49.136;10.366;2023-09-18T12:50:26;18.40;99.90
20432;DHT22;10375;49.136;10.366;2023-09-18T12:53:05;18.40;99.90
20432;DHT22;10375;49.136;10.366;2023-09-18T12:55:34;18.30;99.90
20432;DHT22;10375;49.136;10.366;2023-09-18T12:58:01;18.30;99.90
20432;DHT22;10375;49.136;10.366;2023-09-18T13:00:32;18.30;99.90
20432;DHT22;10375;49.136;10.366;2023-09-18T13:03:00;18.30;99.90
20432;DHT22;10375;49.136;10.366;2023-09-18T13:05:27;18.30;99.90
20432;DHT22;10375;49.136;10.366;2023-09-18T13:08:04;18.20;99.90
20432;DHT22;10375;49.136;10.366;2023-09-18T13:10:48;18.30;99.90
20432;DHT22;10375;49.136;10.366;2023-09-18T13:13:19;18.40;99.90
20432;DHT22;10375;49.136;10.366;2023-09-18T13:15:47;18.40;99.90
20432;DHT22;10375;49.136;10.366;2023-09-18T13:18:16;18.30;99.90
20432;DHT22;10375;49.136;10.366;2023-09-18T13:20:44;18.20;99.90
20432;DHT22;10375;49.136;10.366;2023-09-18T13:23:11;18.00;99.90
20432;DHT22;10375;49.136;10.366;2023-09-18T13:25:39;17.90;99.90
20432;DHT22;10375;49.136;10.366;2023-09-18T13:28:10;17.80;99.90
20432;DHT22;10375;49.136;10.366;2023-09-18T13:30:38;17.90;99.90
20432;DHT22;10375;49.136;10.366;2023-09-18T13:33:07;17.70;99.90
20432;DHT22;10375;49.136;10.366;2023-09-18T13:35:40;17.80;99.90
20432;DHT22;10375;49.136;10.366;2023-09-18T13:38:08;17.90;99.90
20432;DHT22;10375;49.136;10.366;2023-09-18T13:40:35;17.80;99.90
20432;DHT22;10375;49.136;10.366;2023-09-18T13:43:04;18.00;99.90
20432;DHT22;10375;49.136;10.366;2023-09-18T13:45:34;18.10;99.90
20432;DHT22;10375;49.136;10.366;2023-09-18T13:48:05;18.10;99.90
20432;DHT22;10375;49.136;10.366;2023-09-18T13:50:34;18.20;99.90
20432;DHT22;10375;49.136;10.366;2023-09-18T13:53:02;18.20;99.90
20432;DHT22;10375;49.136;10.366;2023-09-18T13:55:32;18.20;99.90
20432;DHT22;10375;49.136;10.366;2023-09-18T13:57:59;18.40;99.90
20432;DHT22;10375;49.136;10.366;2023-09-18T14:00:26;18.60;99.90
20432;DHT22;10375;49.136;10.366;2023-09-18T14:02:54;18.70;99.90
20432;DHT22;10375;49.136;10.366;2023-09-18T14:05:21;18.80;99.90
20432;DHT22;10375;49.136;10.366;2023-09-18T14:07:48;19.00;99.90
20432;DHT22;10375;49.136;10.366;2023-09-18T14:10:16;19.10;99.90
20432;DHT22;10375;49.136;10.366;2023-09-18T14:12:45;19.10;99.90
20432;DHT22;10375;49.136;10.366;2023-09-18T14:15:12;19.20;99.90
20432;DHT22;10375;49.136;10.366;2023-09-18T14:17:39;19.20;99.90
20432;DHT22;10375;49.136;10.366;2023-09-18T14:20:07;19.10;99.90
20432;DHT22;10375;49.136;10.366;2023-09-18T14:22:35;19.00;99.90
20432;DHT22;10375;49.136;10.366;2023-09-18T14:25:03;19.00;99.90
20432;DHT22;10375;49.136;10.366;2023-09-18T14:27:33;18.90;99.90
20432;DHT22;10375;49.136;10.366;2023-09-18T14:30:05;18.90;99.90
20432;DHT22;10375;49.136;10.366;2023-09-18T14:32:35;18.90;99.90
20432;DHT22;10375;49.136;10.366;2023-09-18T14:35:05;19.00;99.90
20432;DHT22;10375;49.136;10.366;2023-09-18T14:37:36;19.10;99.90
20432;DHT22;10375;49.136;10.366;2023-09-18T14:40:04;19.10;99.90
20432;DHT22;10375;49.136;10.366;2023-09-18T14:42:31;19.20;99.90
20432;DHT22;10375;49.136;10.366;2023-09-18T14:44:58;19.30;99.90
20432;DHT22;10375;49.136;10.366;2023-09-18T14:47:28;19.20;99.90
20432;DHT22;10375;49.136;10.366;2023-09-18T14:49:56;19.40;99.90
20432;DHT22;10375;49.136;10.366;2023-09-18T14:52:25;19.30;99.90
20432;DHT22;10375;49.136;10.366;2023-09-18T14:54:53;19.30;99.90
20432;DHT22;10375;49.136;10.366;2023-09-18T14:57:20;19.30;99.90
20432;DHT22;10375;49.136;10.366;2023-09-18T14:59:47;19.30;99.90
20432;DHT22;10375;49.136;10.366;2023-09-18T15:02:15;19.30;99.90
20432;DHT22;10375;49.136;10.366;2023-09-18T15:04:45;19.30;99.90
20432;DHT22;10375;49.136;10.366;2023-09-18T15:07:12;19.20;99.90
20432;DHT22;10375;49.136;10.366;2023-09-18T15:09:40;19.20;99.90
20432;DHT22;10375;49.136;10.366;2023-09-18T15:12:07;19.20;99.90
20432;DHT22;10375;49.136;10.366;2023-09-18T15:14:35;19.30;99.90
20432;DHT22;10375;49.136;10.366;2023-09-18T15:17:03;19.50;99.90
20432;DHT22;10375;49.136;10.366;2023-09-18T15:19:30;19.60;99.90
20432;DHT22;10375;49.136;10.366;2023-09-18T15:21:58;19.80;99.90
20432;DHT22;10375;49.136;10.366;2023-09-18T15:24:26;20.10;99.90
20432;DHT22;10375;49.136;10.366;2023-09-18T15:26:53;20.30;99.90
20432;DHT22;10375;49.136;10.366;2023-09-18T15:29:20;20.40;99.90
20432;DHT22;10375;49.136;10.366;2023-09-18T15:31:48;20.60;99.90
20432;DHT22;10375;49.136;10.366;2023-09-18T15:34:15;20.70;99.90
20432;DHT22;10375;49.136;10.366;2023-09-18T15:36:44;20.70;99.90
20432;DHT22;10375;49.136;10.366;2023-09-18T15:39:11;20.70;99.90
20432;DHT22;10375;49.136;10.366;2023-09-18T15:41:40;20.80;99.90